createdAt,value
2017-07-21T07:57:44.358Z,31.8
2017-07-21T07:57:46.970Z,31.8
2017-07-21T07:57:51.443Z,31.8
2017-07-21T07:57:53.749Z,31.8
2017-07-21T07:57:56.453Z,31.8
2017-07-21T07:57:59.173Z,31.8
2017-07-21T07:58:03.559Z,31.7
2017-07-21T07:58:12.356Z,31.6
2017-07-21T07:58:16.094Z,31.6
2017-07-21T07:58:18.914Z,31.5
2017-07-21T07:58:21.766Z,31.5
2017-07-21T07:58:24.584Z,31.5
2017-07-21T07:58:27.368Z,31.5
2017-07-21T07:58:30.102Z,31.6
2017-07-21T07:58:32.931Z,31.4
2017-07-21T07:58:35.792Z,31.5
2017-07-21T07:58:38.982Z,31.5
2017-07-21T07:58:41.801Z,31.6
2017-07-21T07:58:44.759Z,31.6
2017-07-21T07:58:47.905Z,31.7
2017-07-21T07:58:51.084Z,31.7
2017-07-21T07:58:54.473Z,31.7
2017-07-21T07:58:57.446Z,31.8
2017-07-21T07:59:00.503Z,32.0
2017-07-21T07:59:03.518Z,31.9
2017-07-21T07:59:06.795Z,32.0
2017-07-21T07:59:09.565Z,32.0
2017-07-21T07:59:12.314Z,32.1
2017-07-21T07:59:15.246Z,32.2
2017-07-21T07:59:18.111Z,32.2
2017-07-21T07:59:20.875Z,32.2
2017-07-21T07:59:23.487Z,32.2
2017-07-21T07:59:26.473Z,32.3
2017-07-21T07:59:29.435Z,32.3
2017-07-21T07:59:33.907Z,32.2
2017-07-21T07:59:37.061Z,32.2
2017-07-21T07:59:42.403Z,32.3
2017-07-21T07:59:44.906Z,32.3
2017-07-21T07:59:47.728Z,32.3
2017-07-21T07:59:51.257Z,32.3
2017-07-21T07:59:53.945Z,32.4
2017-07-21T07:59:56.728Z,32.3
2017-07-21T07:59:59.489Z,32.3
2017-07-21T08:00:02.232Z,32.4
2017-07-21T08:00:04.912Z,32.4
2017-07-21T08:00:07.686Z,32.4
2017-07-21T08:00:10.520Z,32.4
2017-07-21T08:00:13.380Z,32.5
2017-07-21T08:00:16.238Z,32.5
2017-07-21T08:00:19.009Z,32.5
2017-07-21T08:00:21.925Z,32.6
2017-07-21T08:00:24.688Z,32.5
2017-07-21T08:00:27.549Z,32.5
2017-07-21T08:00:30.320Z,32.5
2017-07-21T08:00:33.117Z,32.5
2017-07-21T08:00:35.871Z,32.6
2017-07-21T08:00:38.713Z,32.6
2017-07-21T08:00:41.502Z,32.6
2017-07-21T08:00:44.294Z,32.7
2017-07-21T08:00:47.022Z,32.7
2017-07-21T08:00:49.780Z,32.6
2017-07-21T08:00:52.558Z,32.6
2017-07-21T08:00:55.266Z,32.7
2017-07-21T08:00:58.000Z,32.8
2017-07-21T08:01:00.748Z,32.8
2017-07-21T08:01:03.585Z,32.6
2017-07-21T08:01:06.361Z,32.7
2017-07-21T08:01:09.542Z,32.7
2017-07-21T08:01:12.733Z,32.8
2017-07-21T08:01:15.827Z,32.9
2017-07-21T08:01:18.905Z,32.7
2017-07-21T08:01:21.833Z,32.8
2017-07-21T08:01:25.016Z,32.8
2017-07-21T08:01:28.027Z,32.8
2017-07-21T08:01:31.166Z,32.8
2017-07-21T08:01:34.295Z,32.9
2017-07-21T08:01:37.372Z,32.9
2017-07-21T08:01:40.238Z,32.8
2017-07-21T08:01:43.087Z,32.9
2017-07-21T08:01:45.815Z,32.9
